sensor_id;sensor_type;location;lat;lon;timestamp;pressure;altitude;pressure_sealevel;temperature;humidity
68525;BME280;55524;51.380;13.372;2023-04-21T00:02:11;100802.53;;;7.53;100.00
68525;BME280;55524;51.380;13.372;2023-04-21T00:04:41;100794.66;;;7.52;100.00
68525;BME280;55524;51.380;13.372;2023-04-21T00:07:10;100795.63;;;7.48;100.00
68525;BME280;55524;51.380;13.372;2023-04-21T00:09:37;100791.28;;;7.45;100.00
68525;BME280;55524;51.380;13.372;2023-04-21T00:12:03;100794.84;;;7.43;100.00
68525;BME280;55524;51.380;13.372;2023-04-21T00:14:29;100789.66;;;7.38;100.00
68525;BME280;55524;51.380;13.372;2023-04-21T00:16:55;100788.72;;;7.42;100.00
68525;BME280;55524;51.380;13.372;2023-04-21T00:19:22;100781.75;;;7.39;100.00
68525;BME280;55524;51.380;13.372;2023-04-21T00:21:48;100785.22;;;7.40;100.00
68525;BME280;55524;51.380;13.372;2023-04-21T00:24:15;100780.88;;;7.41;100.00
68525;BME280;55524;51.380;13.372;2023-04-21T00:26:41;100790.28;;;7.52;100.00
68525;BME280;55524;51.380;13.372;2023-04-21T00:29:08;100784.13;;;7.53;100.00
68525;BME280;55524;51.380;13.372;2023-04-21T00:31:34;100780.69;;;7.50;100.00
68525;BME280;55524;51.380;13.372;2023-04-21T00:34:01;100780.75;;;7.47;100.00
68525;BME280;55524;51.380;13.372;2023-04-21T00:36:27;100778.16;;;7.45;100.00
68525;BME280;55524;51.380;13.372;2023-04-21T00:38:53;100773.84;;;7.41;100.00
68525;BME280;55524;51.380;13.372;2023-04-21T00:41:20;100769.50;;;7.38;100.00
68525;BME280;55524;51.380;13.372;2023-04-21T00:44:06;100774.00;;;7.33;100.00
68525;BME280;55524;51.380;13.372;2023-04-21T00:46:33;100770.59;;;7.27;100.00
68525;BME280;55524;51.380;13.372;2023-04-21T00:49:02;100766.25;;;7.26;100.00
68525;BME280;55524;51.380;13.372;2023-04-21T00:51:28;100768.03;;;7.24;100.00
68525;BME280;55524;51.380;13.372;2023-04-21T00:53:59;100768.06;;;7.22;100.00
68525;BME280;55524;51.380;13.372;2023-04-21T00:56:26;100764.56;;;7.20;100.00
68525;BME280;55524;51.380;13.372;2023-04-21T00:58:53;100765.53;;;7.16;100.00
68525;BME280;55524;51.380;13.372;2023-04-21T01:01:19;100758.41;;;7.23;100.00
68525;BME280;55524;51.380;13.372;2023-04-21T01:03:46;100760.34;;;7.13;100.00
68525;BME280;55524;51.380;13.372;2023-04-21T01:06:12;100750.66;;;7.15;100.00
68525;BME280;55524;51.380;13.372;2023-04-21T01:08:38;100756.00;;;7.10;100.00
68525;BME280;55524;51.380;13.372;2023-04-21T01:11:09;100755.09;;;7.11;100.00
68525;BME280;55524;51.380;13.372;2023-04-21T01:13:36;100756.00;;;7.10;100.00
68525;BME280;55524;51.380;13.372;2023-04-21T01:16:04;100753.38;;;7.10;100.00
68525;BME280;55524;51.380;13.372;2023-04-21T01:18:30;100755.97;;;7.13;100.00
68525;BME280;55524;51.380;13.372;2023-04-21T01:20:56;100756.69;;;7.20;100.00
68525;BME280;55524;51.380;13.372;2023-04-21T01:23:26;100748.78;;;7.22;100.00
68525;BME280;55524;51.380;13.372;2023-04-21T01:25:52;100741.81;;;7.21;100.00
68525;BME280;55524;51.380;13.372;2023-04-21T01:28:22;100750.56;;;7.21;100.00
68525;BME280;55524;51.380;13.372;2023-04-21T01:30:49;100745.13;;;7.30;100.00
68525;BME280;55524;51.380;13.372;2023-04-21T01:33:16;100741.69;;;7.27;100.00
68525;BME280;55524;51.380;13.372;2023-04-21T01:35:43;100744.38;;;7.24;100.00
68525;BME280;55524;51.380;13.372;2023-04-21T01:38:09;100733.03;;;7.22;100.00
68525;BME280;55524;51.380;13.372;2023-04-21T01:40:36;100736.59;;;7.18;100.00
68525;BME280;55524;51.380;13.372;2023-04-21T01:43:03;100733.94;;;7.19;100.00
68525;BME280;55524;51.380;13.372;2023-04-21T01:45:30;100728.69;;;7.21;100.00
68525;BME280;55524;51.380;13.372;2023-04-21T01:47:56;100733.97;;;7.18;100.00
68525;BME280;55524;51.380;13.372;2023-04-21T01:50:23;100735.75;;;7.17;100.00
68525;BME280;55524;51.380;13.372;2023-04-21T01:52:49;100726.09;;;7.16;100.00
68525;BME280;55524;51.380;13.372;2023-04-21T01:55:16;100728.81;;;7.11;100.00
68525;BME280;55524;51.380;13.372;2023-04-21T01:57:42;100720.06;;;7.11;100.00
68525;BME280;55524;51.380;13.372;2023-04-21T02:00:09;100722.78;;;7.06;100.00
68525;BME280;55524;51.380;13.372;2023-04-21T02:02:35;100731.50;;;7.10;100.00
68525;BME280;55524;51.380;13.372;2023-04-21T02:05:01;100721.91;;;7.07;100.00
68525;BME280;55524;51.380;13.372;2023-04-21T02:07:28;100721.06;;;7.05;100.00
68525;BME280;55524;51.380;13.372;2023-04-21T02:09:54;100718.59;;;6.98;100.00
68525;BME280;55524;51.380;13.372;2023-04-21T02:12:20;100722.16;;;6.94;100.00
68525;BME280;55524;51.380;13.372;2023-04-21T02:14:46;100728.28;;;6.94;100.00
68525;BME280;55524;51.380;13.372;2023-04-21T02:17:14;100729.28;;;6.87;100.00
68525;BME280;55524;51.380;13.372;2023-04-21T02:19:40;100730.94;;;6.91;100.00
68525;BME280;55524;51.380;13.372;2023-04-21T02:22:06;100730.88;;;6.96;100.00
68525;BME280;55524;51.380;13.372;2023-04-21T02:24:33;100733.53;;;6.94;100.00
68525;BME280;55524;51.380;13.372;2023-04-21T02:27:00;100731.72;;;6.96;100.00
68525;BME280;55524;51.380;13.372;2023-04-21T02:29:27;100735.09;;;7.04;100.00
68525;BME280;55524;51.380;13.372;2023-04-21T02:31:53;100741.22;;;7.05;100.00
68525;BME280;55524;51.380;13.372;2023-04-21T02:34:20;100742.97;;;7.06;100.00
68525;BME280;55524;51.380;13.372;2023-04-21T02:36:47;100735.16;;;7.01;100.00
68525;BME280;55524;51.380;13.372;2023-04-21T02:39:13;100734.41;;;6.95;100.00
68525;BME280;55524;51.380;13.372;2023-04-21T02:41:39;100736.22;;;6.91;100.00
68525;BME280;55524;51.380;13.372;2023-04-21T02:44:05;100736.38;;;6.82;100.00
68525;BME280;55524;51.380;13.372;2023-04-21T02:46:32;100734.66;;;6.79;100.00
68525;BME280;55524;51.380;13.372;2023-04-21T02:48:58;100725.97;;;6.77;100.00
68525;BME280;55524;51.380;13.372;2023-04-21T02:51:24;100731.25;;;6.74;100.00
68525;BME280;55524;51.380;13.372;2023-04-21T02:53:50;100724.28;;;6.72;100.00
68525;BME280;55524;51.380;13.372;2023-04-21T02:56:17;100731.22;;;6.76;100.00
68525;BME280;55524;51.380;13.372;2023-04-21T02:58:43;100727.00;;;6.67;100.00
68525;BME280;55524;51.380;13.372;2023-04-21T03:01:10;100732.19;;;6.69;100.00
68525;BME280;55524;51.380;13.372;2023-04-21T03:03:37;100725.28;;;6.64;100.00
68525;BME280;55524;51.380;13.372;2023-04-21T03:06:04;100724.31;;;6.70;100.00
68525;BME280;55524;51.380;13.372;2023-04-21T03:08:31;100722.66;;;6.64;100.00
68525;BME280;55524;51.380;13.372;2023-04-21T03:10:57;100732.19;;;6.70;100.00
68525;BME280;55524;51.380;13.372;2023-04-21T03:13:24;100724.41;;;6.65;100.00
68525;BME280;55524;51.380;13.372;2023-04-21T03:15:51;100727.91;;;6.64;100.00
68525;BME280;55524;51.380;13.372;2023-04-21T03:18:17;100725.44;;;6.55;100.00
68525;BME280;55524;51.380;13.372;2023-04-21T03:20:44;100729.03;;;6.48;100.00
68525;BME280;55524;51.380;13.372;2023-04-21T03:23:10;100720.31;;;6.48;100.00
68525;BME280;55524;51.380;13.372;2023-04-21T03:25:37;100726.50;;;6.44;100.00
68525;BME280;55524;51.380;13.372;2023-04-21T03:28:04;100730.91;;;6.42;100.00
68525;BME280;55524;51.380;13.372;2023-04-21T03:30:30;100729.28;;;6.33;100.00
68525;BME280;55524;51.380;13.372;2023-04-21T03:32:57;100730.22;;;6.29;100.00
68525;BME280;55524;51.380;13.372;2023-04-21T03:35:24;100740.59;;;6.36;100.00
68525;BME280;55524;51.380;13.372;2023-04-21T03:37:50;100735.28;;;6.43;100.00
68525;BME280;55524;51.380;13.372;2023-04-21T03:40:17;100736.16;;;6.40;100.00
68525;BME280;55524;51.380;13.372;2023-04-21T03:42:44;100736.97;;;6.45;100.00
68525;BME280;55524;51.380;13.372;2023-04-21T03:45:11;100738.63;;;6.49;100.00
68525;BME280;55524;51.380;13.372;2023-04-21T03:47:37;100742.25;;;6.44;100.00
68525;BME280;55524;51.380;13.372;2023-04-21T03:50:04;100732.53;;;6.50;100.00
68525;BME280;55524;51.380;13.372;2023-04-21T03:52:31;100736.03;;;6.49;100.00
68525;BME280;55524;51.380;13.372;2023-04-21T03:54:57;100731.66;;;6.50;100.00
68525;BME280;55524;51.380;13.372;2023-04-21T03:57:23;100738.63;;;6.51;100.00
68525;BME280;55524;51.380;13.372;2023-04-21T03:59:49;100738.78;;;6.42;100.00
68525;BME280;55524;51.380;13.372;2023-04-21T04:02:16;100744.13;;;6.35;100.00
68525;BME280;55524;51.380;13.372;2023-04-21T04:04:42;100745.06;;;6.31;100.00
68525;BME280;55524;51.380;13.372;2023-04-21T04:07:08;100743.38;;;6.27;100.00
68525;BME280;55524;51.380;13.372;2023-04-21T04:09:35;100746.94;;;6.23;100.00
68525;BME280;55524;51.380;13.372;2023-04-21T04:12:01;100747.03;;;6.15;100.00
68525;BME280;55524;51.380;13.372;2023-04-21T04:14:28;100751.44;;;6.13;100.00
68525;BME280;55524;51.380;13.372;2023-04-21T04:16:55;100752.25;;;6.19;100.00
68525;BME280;55524;51.380;13.372;2023-04-21T04:19:21;100756.69;;;6.15;100.00
68525;BME280;55524;51.380;13.372;2023-04-21T04:21:47;100750.66;;;6.07;100.00
68525;BME280;55524;51.380;13.372;2023-04-21T04:24:14;100757.69;;;6.05;100.00
68525;BME280;55524;51.380;13.372;2023-04-21T04:26:40;100757.69;;;6.06;100.00
68525;BME280;55524;51.380;13.372;2023-04-21T04:29:07;100755.16;;;5.99;100.00
68525;BME280;55524;51.380;13.372;2023-04-21T04:31:35;100764.78;;;5.98;100.00
68525;BME280;55524;51.380;13.372;2023-04-21T04:34:01;100767.50;;;5.87;100.00
68525;BME280;55524;51.380;13.372;2023-04-21T04:36:28;100764.94;;;5.81;100.00
68525;BME280;55524;51.380;13.372;2023-04-21T04:38:55;100759.78;;;5.74;100.00
68525;BME280;55524;51.380;13.372;2023-04-21T04:41:23;100759.84;;;5.69;100.00
68525;BME280;55524;51.380;13.372;2023-04-21T04:43:49;100760.78;;;5.65;100.00
68525;BME280;55524;51.380;13.372;2023-04-21T04:46:16;100759.06;;;5.64;100.00
68525;BME280;55524;51.380;13.372;2023-04-21T04:48:42;100754.69;;;5.61;100.00
68525;BME280;55524;51.380;13.372;2023-04-21T04:51:08;100760.81;;;5.63;100.00
68525;BME280;55524;51.380;13.372;2023-04-21T04:53:34;100753.75;;;5.68;100.00
68525;BME280;55524;51.380;13.372;2023-04-21T04:56:01;100755.41;;;5.76;100.00
68525;BME280;55524;51.380;13.372;2023-04-21T04:58:27;100754.47;;;5.83;100.00
68525;BME280;55524;51.380;13.372;2023-04-21T05:00:53;100759.66;;;5.84;100.00
68525;BME280;55524;51.380;13.372;2023-04-21T05:03:20;100761.38;;;5.88;100.00
68525;BME280;55524;51.380;13.372;2023-04-21T05:05:46;100758.72;;;5.91;100.00
68525;BME280;55524;51.380;13.372;2023-04-21T05:08:12;100760.31;;;6.05;100.00
68525;BME280;55524;51.380;13.372;2023-04-21T05:10:39;100762.78;;;6.15;100.00
68525;BME280;55524;51.380;13.372;2023-04-21T05:13:05;100768.75;;;6.25;100.00
68525;BME280;55524;51.380;13.372;2023-04-21T05:15:31;100766.88;;;6.35;100.00
68525;BME280;55524;51.380;13.372;2023-04-21T05:17:57;100763.25;;;6.44;100.00
68525;BME280;55524;51.380;13.372;2023-04-21T05:20:24;100773.47;;;6.60;100.00
68525;BME280;55524;51.380;13.372;2023-04-21T05:22:50;100770.72;;;6.68;100.00
68525;BME280;55524;51.380;13.372;2023-04-21T05:25:16;100771.47;;;6.78;100.00
68525;BME280;55524;51.380;13.372;2023-04-21T05:27:43;100768.72;;;6.85;100.00
68525;BME280;55524;51.380;13.372;2023-04-21T05:30:09;100770.19;;;7.00;100.00
68525;BME280;55524;51.380;13.372;2023-04-21T05:32:36;100763.97;;;7.04;100.00
68525;BME280;55524;51.380;13.372;2023-04-21T05:35:02;100769.88;;;7.19;100.00
68525;BME280;55524;51.380;13.372;2023-04-21T05:37:29;100764.28;;;7.37;100.00
68525;BME280;55524;51.380;13.372;2023-04-21T05:39:55;100764.00;;;7.51;100.00
68525;BME280;55524;51.380;13.372;2023-04-21T05:42:21;100763.91;;;7.57;100.00
68525;BME280;55524;51.380;13.372;2023-04-21T05:44:47;100763.66;;;7.69;100.00
68525;BME280;55524;51.380;13.372;2023-04-21T05:47:14;100758.94;;;7.85;100.00
68525;BME280;55524;51.380;13.372;2023-04-21T05:49:40;100757.81;;;7.97;100.00
68525;BME280;55524;51.380;13.372;2023-04-21T05:52:08;100759.44;;;8.02;100.00
68525;BME280;55524;51.380;13.372;2023-04-21T05:54:35;100755.56;;;8.19;100.00
68525;BME280;55524;51.380;13.372;2023-04-21T05:57:02;100753.66;;;8.25;100.00
68525;BME280;55524;51.380;13.372;2023-04-21T05:59:28;100751.75;;;8.32;100.00
68525;BME280;55524;51.380;13.372;2023-04-21T06:01:54;100754.16;;;8.43;100.00
68525;BME280;55524;51.380;13.372;2023-04-21T06:04:20;100756.69;;;8.47;100.00
68525;BME280;55524;51.380;13.372;2023-04-21T06:06:47;100740.69;;;8.55;100.00
68525;BME280;55524;51.380;13.372;2023-04-21T06:09:13;100747.44;;;8.67;100.00
68525;BME280;55524;51.380;13.372;2023-04-21T06:11:40;100737.63;;;8.73;100.00
68525;BME280;55524;51.380;13.372;2023-04-21T06:14:07;100738.28;;;8.81;100.00
68525;BME280;55524;51.380;13.372;2023-04-21T06:16:33;100736.19;;;8.94;100.00
68525;BME280;55524;51.380;13.372;2023-04-21T06:18:59;100735.94;;;9.05;100.00
68525;BME280;55524;51.380;13.372;2023-04-21T06:21:26;100738.31;;;9.14;100.00
68525;BME280;55524;51.380;13.372;2023-04-21T06:23:52;100739.00;;;9.21;100.00
68525;BME280;55524;51.380;13.372;2023-04-21T06:26:19;100740.59;;;9.28;100.00
68525;BME280;55524;51.380;13.372;2023-04-21T06:28:45;100736.88;;;9.35;100.00
68525;BME280;55524;51.380;13.372;2023-04-21T06:31:11;100725.00;;;9.50;100.00
68525;BME280;55524;51.380;13.372;2023-04-21T06:33:40;100723.84;;;9.60;100.00
68525;BME280;55524;51.380;13.372;2023-04-21T06:36:07;100726.22;;;9.69;100.00
68525;BME280;55524;51.380;13.372;2023-04-21T06:38:33;100715.13;;;9.88;100.00
68525;BME280;55524;51.380;13.372;2023-04-21T06:41:00;100718.34;;;9.97;100.00
68525;BME280;55524;51.380;13.372;2023-04-21T06:43:27;100717.44;;;9.98;100.00
68525;BME280;55524;51.380;13.372;2023-04-21T06:45:53;100722.63;;;10.01;100.00
68525;BME280;55524;51.380;13.372;2023-04-21T06:48:20;100709.84;;;10.16;100.00
68525;BME280;55524;51.380;13.372;2023-04-21T06:50:46;100715.06;;;10.19;100.00
68525;BME280;55524;51.380;13.372;2023-04-21T06:53:12;100712.72;;;10.38;100.00
68525;BME280;55524;51.380;13.372;2023-04-21T06:55:39;100715.16;;;10.44;100.00
68525;BME280;55524;51.380;13.372;2023-04-21T06:58:05;100707.81;;;10.53;100.00
68525;BME280;55524;51.380;13.372;2023-04-21T07:00:31;100709.03;;;10.70;100.00
68525;BME280;55524;51.380;13.372;2023-04-21T07:02:58;100703.91;;;10.90;97.84
68525;BME280;55524;51.380;13.372;2023-04-21T07:05:24;100699.91;;;11.03;98.24
68525;BME280;55524;51.380;13.372;2023-04-21T07:07:50;100703.25;;;11.08;99.02
68525;BME280;55524;51.380;13.372;2023-04-21T07:10:18;100703.16;;;11.37;95.54
68525;BME280;55524;51.380;13.372;2023-04-21T07:12:47;100697.75;;;11.63;94.29
68525;BME280;55524;51.380;13.372;2023-04-21T07:15:14;100700.09;;;11.71;93.28
68525;BME280;55524;51.380;13.372;2023-04-21T07:17:40;100699.94;;;11.75;93.27
68525;BME280;55524;51.380;13.372;2023-04-21T07:20:07;100697.44;;;11.96;92.16
68525;BME280;55524;51.380;13.372;2023-04-21T07:22:34;100694.78;;;12.18;91.25
68525;BME280;55524;51.380;13.372;2023-04-21T07:25:02;100695.22;;;12.29;90.49
68525;BME280;55524;51.380;13.372;2023-04-21T07:27:32;100700.69;;;12.46;90.61
68525;BME280;55524;51.380;13.372;2023-04-21T07:29:58;100702.50;;;12.66;88.91
68525;BME280;55524;51.380;13.372;2023-04-21T07:32:25;100700.25;;;12.99;88.21
68525;BME280;55524;51.380;13.372;2023-04-21T07:34:51;100690.69;;;13.16;86.62
68525;BME280;55524;51.380;13.372;2023-04-21T07:37:18;100689.69;;;13.39;86.12
68525;BME280;55524;51.380;13.372;2023-04-21T07:39:44;100676.28;;;13.61;84.52
68525;BME280;55524;51.380;13.372;2023-04-21T07:42:10;100667.59;;;13.95;82.65
68525;BME280;55524;51.380;13.372;2023-04-21T07:44:37;100655.66;;;14.03;80.87
68525;BME280;55524;51.380;13.372;2023-04-21T07:47:03;100649.28;;;14.25;80.43
68525;BME280;55524;51.380;13.372;2023-04-21T07:49:31;100648.47;;;14.42;79.66
68525;BME280;55524;51.380;13.372;2023-04-21T07:51:57;100639.75;;;14.74;78.21
68525;BME280;55524;51.380;13.372;2023-04-21T07:54:24;100626.97;;;14.98;76.96
68525;BME280;55524;51.380;13.372;2023-04-21T07:56:50;100622.22;;;15.21;75.50
68525;BME280;55524;51.380;13.372;2023-04-21T07:59:16;100623.75;;;15.09;75.26
68525;BME280;55524;51.380;13.372;2023-04-21T08:01:42;100622.94;;;15.24;74.97
68525;BME280;55524;51.380;13.372;2023-04-21T08:04:09;100609.97;;;15.34;73.16
68525;BME280;55524;51.380;13.372;2023-04-21T08:06:35;100614.91;;;15.73;73.03
68525;BME280;55524;51.380;13.372;2023-04-21T08:09:01;100597.81;;;15.93;71.97
68525;BME280;55524;51.380;13.372;2023-04-21T08:11:27;100600.38;;;15.95;71.11
68525;BME280;55524;51.380;13.372;2023-04-21T08:13:54;100599.13;;;16.32;71.61
68525;BME280;55524;51.380;13.372;2023-04-21T08:16:20;100600.53;;;16.23;70.50
68525;BME280;55524;51.380;13.372;2023-04-21T08:18:46;100588.28;;;16.35;69.98
68525;BME280;55524;51.380;13.372;2023-04-21T08:21:13;100596.16;;;16.37;70.46
68525;BME280;55524;51.380;13.372;2023-04-21T08:23:39;100587.88;;;16.41;70.14
68525;BME280;55524;51.380;13.372;2023-04-21T08:26:07;100592.81;;;16.63;69.54
68525;BME280;55524;51.380;13.372;2023-04-21T08:28:34;100543.09;;;17.05;64.71
68525;BME280;55524;51.380;13.372;2023-04-21T08:31:00;100517.91;;;17.24;61.16
68525;BME280;55524;51.380;13.372;2023-04-21T08:33:27;100523.44;;;17.20;60.06
68525;BME280;55524;51.380;13.372;2023-04-21T08:35:53;100509.47;;;17.30;60.00
68525;BME280;55524;51.380;13.372;2023-04-21T08:38:20;100511.44;;;17.55;59.72
68525;BME280;55524;51.380;13.372;2023-04-21T08:40:46;100493.78;;;17.52;58.32
68525;BME280;55524;51.380;13.372;2023-04-21T08:43:14;100486.06;;;17.48;56.89
68525;BME280;55524;51.380;13.372;2023-04-21T08:45:41;100489.06;;;17.70;56.96
68525;BME280;55524;51.380;13.372;2023-04-21T08:48:12;100478.69;;;17.24;55.85
68525;BME280;55524;51.380;13.372;2023-04-21T08:50:42;100476.63;;;16.86;55.01
68525;BME280;55524;51.380;13.372;2023-04-21T08:53:09;100472.06;;;17.44;54.46
68525;BME280;55524;51.380;13.372;2023-04-21T08:55:36;100478.16;;;18.13;54.10
68525;BME280;55524;51.380;13.372;2023-04-21T08:58:06;100474.34;;;17.50;54.05
68525;BME280;55524;51.380;13.372;2023-04-21T09:00:34;100482.94;;;17.82;54.60
68525;BME280;55524;51.380;13.372;2023-04-21T09:03:01;100477.25;;;17.60;54.32
68525;BME280;55524;51.380;13.372;2023-04-21T09:05:33;100473.03;;;18.10;53.09
68525;BME280;55524;51.380;13.372;2023-04-21T09:08:13;100468.03;;;18.31;52.84
68525;BME280;55524;51.380;13.372;2023-04-21T09:10:50;100454.94;;;18.64;52.40
68525;BME280;55524;51.380;13.372;2023-04-21T09:13:18;100455.59;;;18.94;52.04
68525;BME280;55524;51.380;13.372;2023-04-21T09:15:47;100447.03;;;18.63;50.58
68525;BME280;55524;51.380;13.372;2023-04-21T09:18:16;100472.81;;;18.13;53.44
68525;BME280;55524;51.380;13.372;2023-04-21T09:20:43;100453.97;;;18.02;51.48
68525;BME280;55524;51.380;13.372;2023-04-21T09:23:10;100444.03;;;18.04;50.74
68525;BME280;55524;51.380;13.372;2023-04-21T09:25:44;100438.25;;;18.10;50.30
68525;BME280;55524;51.380;13.372;2023-04-21T09:28:13;100440.63;;;18.14;50.40
68525;BME280;55524;51.380;13.372;2023-04-21T09:30:41;100429.28;;;18.49;48.63
68525;BME280;55524;51.380;13.372;2023-04-21T09:33:15;100420.16;;;18.77;48.55
68525;BME280;55524;51.380;13.372;2023-04-21T09:35:42;100430.50;;;18.95;48.91
68525;BME280;55524;51.380;13.372;2023-04-21T09:38:12;100427.06;;;18.92;48.76
68525;BME280;55524;51.380;13.372;2023-04-21T09:40:39;100418.97;;;18.81;48.55
68525;BME280;55524;51.380;13.372;2023-04-21T09:43:06;100418.53;;;18.87;48.52
68525;BME280;55524;51.380;13.372;2023-04-21T09:45:32;100439.00;;;19.73;50.23
68525;BME280;55524;51.380;13.372;2023-04-21T09:48:00;100408.84;;;20.05;48.20
68525;BME280;55524;51.380;13.372;2023-04-21T09:50:27;100408.88;;;20.16;47.55
68525;BME280;55524;51.380;13.372;2023-04-21T09:52:55;100392.44;;;19.74;46.44
68525;BME280;55524;51.380;13.372;2023-04-21T09:55:27;100390.78;;;20.07;46.04
68525;BME280;55524;51.380;13.372;2023-04-21T09:57:59;100375.34;;;19.75;45.30
68525;BME280;55524;51.380;13.372;2023-04-21T10:00:27;100363.50;;;20.24;43.69
68525;BME280;55524;51.380;13.372;2023-04-21T10:02:54;100361.19;;;19.62;44.23
68525;BME280;55524;51.380;13.372;2023-04-21T10:05:22;100362.03;;;19.62;44.44
68525;BME280;55524;51.380;13.372;2023-04-21T10:07:48;100390.88;;;20.52;46.50
68525;BME280;55524;51.380;13.372;2023-04-21T10:12:49;100353.69;;;19.78;43.50
68525;BME280;55524;51.380;13.372;2023-04-21T10:15:39;100362.34;;;19.23;44.13
68525;BME280;55524;51.380;13.372;2023-04-21T10:18:20;100337.56;;;19.67;42.22
68525;BME280;55524;51.380;13.372;2023-04-21T10:21:07;100331.47;;;19.06;42.81
68525;BME280;55524;51.380;13.372;2023-04-21T10:23:45;100343.66;;;19.34;43.07
68525;BME280;55524;51.380;13.372;2023-04-21T10:26:25;100334.22;;;19.52;42.94
68525;BME280;55524;51.380;13.372;2023-04-21T10:29:02;100323.09;;;19.46;42.08
68525;BME280;55524;51.380;13.372;2023-04-21T10:39:32;100312.75;;;20.10;41.66
68525;BME280;55524;51.380;13.372;2023-04-21T10:47:26;100282.13;;;20.01;39.42
68525;BME280;55524;51.380;13.372;2023-04-21T10:49:54;100304.44;;;20.02;41.58
68525;BME280;55524;51.380;13.372;2023-04-21T10:52:21;100309.31;;;19.85;41.22
68525;BME280;55524;51.380;13.372;2023-04-21T10:57:17;100291.66;;;20.94;41.11
68525;BME280;55524;51.380;13.372;2023-04-21T10:59:44;100303.66;;;20.78;42.02
68525;BME280;55524;51.380;13.372;2023-04-21T11:02:16;100277.25;;;20.51;39.45
68525;BME280;55524;51.380;13.372;2023-04-21T11:04:43;100283.06;;;20.45;39.52
68525;BME280;55524;51.380;13.372;2023-04-21T11:07:17;100271.13;;;20.38;38.46
68525;BME280;55524;51.380;13.372;2023-04-21T11:09:45;100285.00;;;20.66;40.71
68525;BME280;55524;51.380;13.372;2023-04-21T11:12:16;100253.94;;;20.29;38.16
68525;BME280;55524;51.380;13.372;2023-04-21T11:14:45;100251.03;;;19.76;37.29
68525;BME280;55524;51.380;13.372;2023-04-21T11:17:16;100268.97;;;20.09;39.75
68525;BME280;55524;51.380;13.372;2023-04-21T11:19:54;100262.00;;;20.29;39.17
68525;BME280;55524;51.380;13.372;2023-04-21T11:22:22;100255.94;;;20.71;38.08
68525;BME280;55524;51.380;13.372;2023-04-21T11:24:50;100238.69;;;20.07;37.31
68525;BME280;55524;51.380;13.372;2023-04-21T11:27:17;100241.56;;;20.72;37.56
68525;BME280;55524;51.380;13.372;2023-04-21T11:29:46;100251.97;;;20.86;37.73
68525;BME280;55524;51.380;13.372;2023-04-21T11:32:14;100251.47;;;21.66;38.52
68525;BME280;55524;51.380;13.372;2023-04-21T11:34:40;100237.44;;;20.34;37.24
68525;BME280;55524;51.380;13.372;2023-04-21T11:37:14;100259.16;;;20.97;39.22
68525;BME280;55524;51.380;13.372;2023-04-21T11:39:42;100264.28;;;21.83;39.29
68525;BME280;55524;51.380;13.372;2023-04-21T11:42:09;100238.00;;;21.24;37.57
68525;BME280;55524;51.380;13.372;2023-04-21T11:44:39;100259.91;;;22.13;38.46
68525;BME280;55524;51.380;13.372;2023-04-21T11:47:13;100238.63;;;22.10;36.66
68525;BME280;55524;51.380;13.372;2023-04-21T11:49:53;100238.31;;;22.03;36.60
68525;BME280;55524;51.380;13.372;2023-04-21T11:52:27;100244.44;;;21.12;38.09
68525;BME280;55524;51.380;13.372;2023-04-21T11:55:13;100240.03;;;21.32;36.91
68525;BME280;55524;51.380;13.372;2023-04-21T11:57:46;100229.63;;;21.59;36.29
68525;BME280;55524;51.380;13.372;2023-04-21T12:00:15;100239.53;;;22.20;37.93
68525;BME280;55524;51.380;13.372;2023-04-21T12:02:42;100230.50;;;22.31;36.08
68525;BME280;55524;51.380;13.372;2023-04-21T12:05:10;100223.41;;;21.59;36.52
68525;BME280;55524;51.380;13.372;2023-04-21T12:07:46;100242.72;;;21.32;38.95
68525;BME280;55524;51.380;13.372;2023-04-21T12:10:18;100231.38;;;21.28;37.17
68525;BME280;55524;51.380;13.372;2023-04-21T12:12:45;100233.69;;;21.54;37.38
68525;BME280;55524;51.380;13.372;2023-04-21T12:15:19;100224.78;;;22.15;36.17
68525;BME280;55524;51.380;13.372;2023-04-21T12:17:49;100211.81;;;22.49;35.67
68525;BME280;55524;51.380;13.372;2023-04-21T12:20:18;100231.34;;;22.22;36.87
68525;BME280;55524;51.380;13.372;2023-04-21T12:22:45;100224.00;;;22.43;36.80
68525;BME280;55524;51.380;13.372;2023-04-21T12:25:12;100223.09;;;22.14;37.04
68525;BME280;55524;51.380;13.372;2023-04-21T12:27:51;100215.09;;;21.72;36.92
68525;BME280;55524;51.380;13.372;2023-04-21T12:30:18;100208.19;;;20.74;37.78
68525;BME280;55524;51.380;13.372;2023-04-21T12:32:45;100231.19;;;21.41;39.25
68525;BME280;55524;51.380;13.372;2023-04-21T12:35:12;100213.69;;;22.08;37.18
68525;BME280;55524;51.380;13.372;2023-04-21T12:37:38;100210.66;;;22.32;37.00
68525;BME280;55524;51.380;13.372;2023-04-21T12:40:05;100207.56;;;22.56;37.10
68525;BME280;55524;51.380;13.372;2023-04-21T12:42:33;100197.41;;;20.85;36.67
68525;BME280;55524;51.380;13.372;2023-04-21T12:44:59;100200.88;;;22.21;36.71
68525;BME280;55524;51.380;13.372;2023-04-21T12:47:26;100209.84;;;22.61;36.75
68525;BME280;55524;51.380;13.372;2023-04-21T12:49:52;100197.28;;;21.50;36.85
68525;BME280;55524;51.380;13.372;2023-04-21T12:52:18;100202.66;;;20.87;37.38
68525;BME280;55524;51.380;13.372;2023-04-21T12:54:45;100226.28;;;22.07;38.73
68525;BME280;55524;51.380;13.372;2023-04-21T12:57:11;100201.56;;;21.83;36.74
68525;BME280;55524;51.380;13.372;2023-04-21T12:59:38;100200.19;;;21.37;36.51
68525;BME280;55524;51.380;13.372;2023-04-21T13:02:04;100186.16;;;21.12;36.05